sensor_id;sensor_type;location;lat;lon;timestamp;pressure;altitude;pressure_sealevel;temperature;humidity
9822;BME280;4950;46.042;14.472;2022-10-16T00:02:25;98369.28;;;12.62;85.98
9822;BME280;4950;46.042;14.472;2022-10-16T00:04:51;98365.41;;;12.58;86.17
9822;BME280;4950;46.042;14.472;2022-10-16T00:07:19;98362.34;;;12.55;86.53
9822;BME280;4950;46.042;14.472;2022-10-16T00:09:46;98368.34;;;12.55;86.63
9822;BME280;4950;46.042;14.472;2022-10-16T00:12:14;98368.56;;;12.54;86.58
9822;BME280;4950;46.042;14.472;2022-10-16T00:14:41;98364.03;;;12.48;86.69
9822;BME280;4950;46.042;14.472;2022-10-16T00:17:09;98365.19;;;12.45;86.94
9822;BME280;4950;46.042;14.472;2022-10-16T00:19:35;98370.56;;;12.43;86.79
9822;BME280;4950;46.042;14.472;2022-10-16T00:22:02;98367.84;;;12.37;86.83
9822;BME280;4950;46.042;14.472;2022-10-16T00:24:29;98371.09;;;12.39;86.65
9822;BME280;4950;46.042;14.472;2022-10-16T00:26:55;98368.50;;;12.39;86.55
9822;BME280;4950;46.042;14.472;2022-10-16T00:29:23;98372.44;;;12.35;86.91
9822;BME280;4950;46.042;14.472;2022-10-16T00:31:50;98367.22;;;12.35;86.84
9822;BME280;4950;46.042;14.472;2022-10-16T00:34:16;98374.88;;;12.36;86.50
9822;BME280;4950;46.042;14.472;2022-10-16T00:36:43;98377.91;;;12.40;86.26
9822;BME280;4950;46.042;14.472;2022-10-16T00:39:09;98379.22;;;12.36;86.29
9822;BME280;4950;46.042;14.472;2022-10-16T00:41:36;98384.44;;;12.36;86.18
9822;BME280;4950;46.042;14.472;2022-10-16T00:44:40;98390.00;;;12.33;86.30
9822;BME280;4950;46.042;14.472;2022-10-16T00:46:52;98392.63;;;12.33;86.12
9822;BME280;4950;46.042;14.472;2022-10-16T00:49:19;98388.22;;;12.33;86.29
9822;BME280;4950;46.042;14.472;2022-10-16T00:51:49;98392.16;;;12.29;86.49
9822;BME280;4950;46.042;14.472;2022-10-16T00:54:18;98397.81;;;12.33;86.69
9822;BME280;4950;46.042;14.472;2022-10-16T00:56:46;98389.53;;;12.29;87.22
9822;BME280;4950;46.042;14.472;2022-10-16T00:59:16;98394.91;;;12.28;87.02
9822;BME280;4950;46.042;14.472;2022-10-16T01:01:44;98395.28;;;12.24;86.66
9822;BME280;4950;46.042;14.472;2022-10-16T01:04:12;98390.97;;;12.32;86.32
9822;BME280;4950;46.042;14.472;2022-10-16T01:06:43;98398.97;;;12.30;86.08
9822;BME280;4950;46.042;14.472;2022-10-16T01:09:14;98400.66;;;12.23;86.40
9822;BME280;4950;46.042;14.472;2022-10-16T01:11:56;98405.44;;;12.11;86.69
9822;BME280;4950;46.042;14.472;2022-10-16T01:14:32;98403.47;;;12.13;87.34
9822;BME280;4950;46.042;14.472;2022-10-16T01:17:06;98402.94;;;12.18;87.54
9822;BME280;4950;46.042;14.472;2022-10-16T01:19:49;98393.22;;;12.12;87.72
9822;BME280;4950;46.042;14.472;2022-10-16T01:22:19;98401.50;;;12.15;87.92
9822;BME280;4950;46.042;14.472;2022-10-16T01:24:49;98393.84;;;12.14;87.98
9822;BME280;4950;46.042;14.472;2022-10-16T01:27:21;98401.34;;;12.09;88.42
9822;BME280;4950;46.042;14.472;2022-10-16T01:29:53;98399.97;;;11.98;88.75
9822;BME280;4950;46.042;14.472;2022-10-16T01:32:28;98399.16;;;11.97;89.46
9822;BME280;4950;46.042;14.472;2022-10-16T01:35:00;98398.53;;;11.95;89.90
9822;BME280;4950;46.042;14.472;2022-10-16T01:37:33;98402.09;;;11.94;90.39
9822;BME280;4950;46.042;14.472;2022-10-16T01:40:05;98394.13;;;11.88;90.34
9822;BME280;4950;46.042;14.472;2022-10-16T01:42:35;98396.94;;;11.78;90.99
9822;BME280;4950;46.042;14.472;2022-10-16T01:45:05;98401.50;;;11.76;91.56
9822;BME280;4950;46.042;14.472;2022-10-16T01:47:35;98403.91;;;11.77;91.75
9822;BME280;4950;46.042;14.472;2022-10-16T01:50:04;98414.94;;;11.79;91.72
9822;BME280;4950;46.042;14.472;2022-10-16T01:52:35;98415.44;;;11.83;91.55
9822;BME280;4950;46.042;14.472;2022-10-16T01:55:04;98415.75;;;11.88;91.69
9822;BME280;4950;46.042;14.472;2022-10-16T01:57:34;98421.09;;;11.86;91.63
9822;BME280;4950;46.042;14.472;2022-10-16T02:00:07;98420.81;;;11.90;91.43
9822;BME280;4950;46.042;14.472;2022-10-16T02:02:35;98416.91;;;11.94;91.57
9822;BME280;4950;46.042;14.472;2022-10-16T02:05:05;98421.59;;;11.98;91.56
9822;BME280;4950;46.042;14.472;2022-10-16T02:07:35;98420.41;;;12.01;91.37
9822;BME280;4950;46.042;14.472;2022-10-16T02:10:01;98425.19;;;11.97;91.66
9822;BME280;4950;46.042;14.472;2022-10-16T02:12:31;98417.84;;;11.93;91.95
9822;BME280;4950;46.042;14.472;2022-10-16T02:15:00;98421.47;;;11.92;92.18
9822;BME280;4950;46.042;14.472;2022-10-16T02:17:27;98421.09;;;11.95;91.92
9822;BME280;4950;46.042;14.472;2022-10-16T02:19:56;98430.88;;;11.93;92.11
9822;BME280;4950;46.042;14.472;2022-10-16T02:22:27;98427.31;;;11.94;92.17
9822;BME280;4950;46.042;14.472;2022-10-16T02:24:57;98425.50;;;11.94;92.37
9822;BME280;4950;46.042;14.472;2022-10-16T02:27:27;98429.91;;;11.94;92.45
9822;BME280;4950;46.042;14.472;2022-10-16T02:30:02;98432.97;;;11.97;92.42
9822;BME280;4950;46.042;14.472;2022-10-16T02:32:34;98436.22;;;11.99;92.31
9822;BME280;4950;46.042;14.472;2022-10-16T02:35:04;98429.22;;;12.00;92.44
9822;BME280;4950;46.042;14.472;2022-10-16T02:37:32;98434.75;;;12.05;92.43
9822;BME280;4950;46.042;14.472;2022-10-16T02:39:59;98438.44;;;12.11;92.46
9822;BME280;4950;46.042;14.472;2022-10-16T02:42:29;98435.66;;;12.12;92.04
9822;BME280;4950;46.042;14.472;2022-10-16T02:44:56;98437.50;;;12.03;92.07
9822;BME280;4950;46.042;14.472;2022-10-16T02:47:24;98436.69;;;12.03;92.48
9822;BME280;4950;46.042;14.472;2022-10-16T02:49:50;98446.00;;;11.97;92.81
9822;BME280;4950;46.042;14.472;2022-10-16T02:52:17;98454.44;;;11.91;93.08
9822;BME280;4950;46.042;14.472;2022-10-16T02:54:44;98450.25;;;11.90;93.35
9822;BME280;4950;46.042;14.472;2022-10-16T02:57:10;98453.16;;;11.95;93.75
9822;BME280;4950;46.042;14.472;2022-10-16T02:59:37;98456.84;;;12.01;93.70
9822;BME280;4950;46.042;14.472;2022-10-16T03:02:03;98449.25;;;11.99;93.67
9822;BME280;4950;46.042;14.472;2022-10-16T03:04:31;98452.59;;;12.08;93.58
9822;BME280;4950;46.042;14.472;2022-10-16T03:06:58;98449.66;;;12.11;93.68
9822;BME280;4950;46.042;14.472;2022-10-16T03:09:25;98450.50;;;12.03;93.74
9822;BME280;4950;46.042;14.472;2022-10-16T03:11:51;98452.13;;;12.04;93.90
9822;BME280;4950;46.042;14.472;2022-10-16T03:14:18;98445.63;;;12.00;94.15
9822;BME280;4950;46.042;14.472;2022-10-16T03:16:44;98456.03;;;12.00;94.37
9822;BME280;4950;46.042;14.472;2022-10-16T03:19:11;98451.31;;;12.04;94.52
9822;BME280;4950;46.042;14.472;2022-10-16T03:21:39;98456.69;;;12.02;94.25
9822;BME280;4950;46.042;14.472;2022-10-16T03:24:06;98455.06;;;12.01;94.38
9822;BME280;4950;46.042;14.472;2022-10-16T03:26:32;98455.25;;;12.00;94.69
9822;BME280;4950;46.042;14.472;2022-10-16T03:28:59;98453.44;;;12.00;94.54
9822;BME280;4950;46.042;14.472;2022-10-16T03:31:27;98457.03;;;11.99;94.69
9822;BME280;4950;46.042;14.472;2022-10-16T03:33:54;98462.56;;;11.96;94.71
9822;BME280;4950;46.042;14.472;2022-10-16T03:36:21;98461.75;;;11.96;95.17
9822;BME280;4950;46.042;14.472;2022-10-16T03:38:48;98462.09;;;11.93;95.15
9822;BME280;4950;46.042;14.472;2022-10-16T03:41:15;98463.22;;;11.98;95.04
9822;BME280;4950;46.042;14.472;2022-10-16T03:43:42;98455.88;;;12.02;95.14
9822;BME280;4950;46.042;14.472;2022-10-16T03:46:08;98461.69;;;12.12;94.16
9822;BME280;4950;46.042;14.472;2022-10-16T03:48:35;98471.94;;;12.14;93.18
9822;BME280;4950;46.042;14.472;2022-10-16T03:51:02;98468.56;;;12.05;92.94
9822;BME280;4950;46.042;14.472;2022-10-16T03:53:29;98471.81;;;11.99;93.42
9822;BME280;4950;46.042;14.472;2022-10-16T03:55:57;98467.47;;;11.91;94.09
9822;BME280;4950;46.042;14.472;2022-10-16T03:58:23;98469.72;;;11.94;94.05
9822;BME280;4950;46.042;14.472;2022-10-16T04:00:50;98467.94;;;12.03;94.04
9822;BME280;4950;46.042;14.472;2022-10-16T04:03:16;98472.94;;;12.04;93.56
9822;BME280;4950;46.042;14.472;2022-10-16T04:05:44;98472.94;;;12.04;93.63
9822;BME280;4950;46.042;14.472;2022-10-16T04:08:11;98476.19;;;12.07;93.71
9822;BME280;4950;46.042;14.472;2022-10-16T04:10:37;98475.06;;;12.01;93.80
9822;BME280;4950;46.042;14.472;2022-10-16T04:13:05;98480.28;;;12.01;93.97
9822;BME280;4950;46.042;14.472;2022-10-16T04:15:32;98477.34;;;12.04;93.66
9822;BME280;4950;46.042;14.472;2022-10-16T04:17:58;98482.06;;;12.00;93.37
9822;BME280;4950;46.042;14.472;2022-10-16T04:20:25;98473.63;;;11.98;93.41
9822;BME280;4950;46.042;14.472;2022-10-16T04:22:51;98469.69;;;12.02;93.21
9822;BME280;4950;46.042;14.472;2022-10-16T04:25:18;98474.94;;;11.94;93.37
9822;BME280;4950;46.042;14.472;2022-10-16T04:27:44;98476.06;;;12.00;92.98
9822;BME280;4950;46.042;14.472;2022-10-16T04:30:13;98472.66;;;11.91;93.31
9822;BME280;4950;46.042;14.472;2022-10-16T04:32:39;98477.56;;;11.78;93.59
9822;BME280;4950;46.042;14.472;2022-10-16T04:35:07;98479.38;;;11.69;94.90
9822;BME280;4950;46.042;14.472;2022-10-16T04:37:33;98471.91;;;11.66;95.06
9822;BME280;4950;46.042;14.472;2022-10-16T04:40:00;98476.28;;;11.65;95.92
9822;BME280;4950;46.042;14.472;2022-10-16T04:42:26;98481.16;;;11.69;95.57
9822;BME280;4950;46.042;14.472;2022-10-16T04:44:53;98484.25;;;11.72;95.35
9822;BME280;4950;46.042;14.472;2022-10-16T04:47:21;98482.91;;;11.84;95.34
9822;BME280;4950;46.042;14.472;2022-10-16T04:49:48;98481.28;;;11.92;94.15
9822;BME280;4950;46.042;14.472;2022-10-16T04:52:14;98489.41;;;11.80;94.26
9822;BME280;4950;46.042;14.472;2022-10-16T04:54:41;98486.19;;;11.78;94.79
9822;BME280;4950;46.042;14.472;2022-10-16T04:57:10;98479.50;;;11.84;94.33
9822;BME280;4950;46.042;14.472;2022-10-16T04:59:37;98478.84;;;11.82;94.48
9822;BME280;4950;46.042;14.472;2022-10-16T05:02:03;98479.16;;;11.87;94.69
9822;BME280;4950;46.042;14.472;2022-10-16T05:04:32;98474.13;;;11.85;94.79
9822;BME280;4950;46.042;14.472;2022-10-16T05:06:59;98473.16;;;11.78;94.93
9822;BME280;4950;46.042;14.472;2022-10-16T05:09:25;98483.25;;;11.73;95.41
9822;BME280;4950;46.042;14.472;2022-10-16T05:11:52;98483.59;;;11.70;95.45
9822;BME280;4950;46.042;14.472;2022-10-16T05:14:19;98480.81;;;11.72;95.67
9822;BME280;4950;46.042;14.472;2022-10-16T05:16:45;98480.34;;;11.68;95.92
9822;BME280;4950;46.042;14.472;2022-10-16T05:19:13;98480.16;;;11.70;95.74
9822;BME280;4950;46.042;14.472;2022-10-16T05:21:41;98479.53;;;11.76;95.67
9822;BME280;4950;46.042;14.472;2022-10-16T05:24:08;98482.94;;;11.76;95.87
9822;BME280;4950;46.042;14.472;2022-10-16T05:26:34;98487.97;;;11.78;95.80
9822;BME280;4950;46.042;14.472;2022-10-16T05:29:01;98490.72;;;11.76;95.62
9822;BME280;4950;46.042;14.472;2022-10-16T05:31:28;98493.31;;;11.84;95.69
9822;BME280;4950;46.042;14.472;2022-10-16T05:33:58;98493.00;;;11.88;95.26
9822;BME280;4950;46.042;14.472;2022-10-16T05:36:25;98499.66;;;11.90;95.00
9822;BME280;4950;46.042;14.472;2022-10-16T05:38:53;98497.56;;;11.94;95.44
9822;BME280;4950;46.042;14.472;2022-10-16T05:41:20;98497.38;;;11.95;94.81
9822;BME280;4950;46.042;14.472;2022-10-16T05:43:48;98504.88;;;11.90;95.33
9822;BME280;4950;46.042;14.472;2022-10-16T05:46:15;98503.72;;;11.84;95.64
9822;BME280;4950;46.042;14.472;2022-10-16T05:48:42;98506.47;;;11.83;95.49
9822;BME280;4950;46.042;14.472;2022-10-16T05:51:11;98508.91;;;11.84;95.86
9822;BME280;4950;46.042;14.472;2022-10-16T05:53:38;98513.63;;;11.81;95.59
9822;BME280;4950;46.042;14.472;2022-10-16T05:56:09;98520.66;;;11.72;96.24
9822;BME280;4950;46.042;14.472;2022-10-16T05:58:37;98520.16;;;11.69;96.06
9822;BME280;4950;46.042;14.472;2022-10-16T06:01:08;98528.47;;;11.64;96.58
9822;BME280;4950;46.042;14.472;2022-10-16T06:03:35;98529.44;;;11.63;96.89
9822;BME280;4950;46.042;14.472;2022-10-16T06:06:07;98534.13;;;11.68;96.76
9822;BME280;4950;46.042;14.472;2022-10-16T06:08:34;98534.31;;;11.66;96.75
9822;BME280;4950;46.042;14.472;2022-10-16T06:11:01;98532.53;;;11.66;97.46
9822;BME280;4950;46.042;14.472;2022-10-16T06:13:29;98540.63;;;11.72;96.99
9822;BME280;4950;46.042;14.472;2022-10-16T06:15:57;98539.34;;;11.68;96.86
9822;BME280;4950;46.042;14.472;2022-10-16T06:18:24;98545.38;;;11.68;97.17
9822;BME280;4950;46.042;14.472;2022-10-16T06:20:50;98545.34;;;11.60;97.00
9822;BME280;4950;46.042;14.472;2022-10-16T06:23:17;98555.31;;;11.56;97.54
9822;BME280;4950;46.042;14.472;2022-10-16T06:25:44;98558.38;;;11.68;96.82
9822;BME280;4950;46.042;14.472;2022-10-16T06:28:10;98556.44;;;11.70;96.83
9822;BME280;4950;46.042;14.472;2022-10-16T06:30:38;98558.84;;;11.63;96.91
9822;BME280;4950;46.042;14.472;2022-10-16T06:33:05;98564.72;;;11.57;96.70
9822;BME280;4950;46.042;14.472;2022-10-16T06:35:31;98573.16;;;11.43;97.47
9822;BME280;4950;46.042;14.472;2022-10-16T06:37:58;98575.63;;;11.44;97.77
9822;BME280;4950;46.042;14.472;2022-10-16T06:40:25;98579.66;;;11.47;98.10
9822;BME280;4950;46.042;14.472;2022-10-16T06:42:54;98588.28;;;11.56;97.79
9822;BME280;4950;46.042;14.472;2022-10-16T06:45:21;98592.16;;;11.60;97.81
9822;BME280;4950;46.042;14.472;2022-10-16T06:47:49;98589.91;;;11.65;97.83
9822;BME280;4950;46.042;14.472;2022-10-16T06:50:15;98596.25;;;11.62;97.38
9822;BME280;4950;46.042;14.472;2022-10-16T06:52:42;98593.50;;;11.64;97.90
9822;BME280;4950;46.042;14.472;2022-10-16T06:55:08;98600.81;;;11.60;97.43
9822;BME280;4950;46.042;14.472;2022-10-16T06:57:35;98602.56;;;11.52;97.27
9822;BME280;4950;46.042;14.472;2022-10-16T07:00:03;98607.28;;;11.48;97.59
9822;BME280;4950;46.042;14.472;2022-10-16T07:02:30;98608.09;;;11.32;97.83
9822;BME280;4950;46.042;14.472;2022-10-16T07:04:58;98607.91;;;11.17;98.53
9822;BME280;4950;46.042;14.472;2022-10-16T07:07:24;98613.25;;;11.07;98.67
9822;BME280;4950;46.042;14.472;2022-10-16T07:09:51;98609.03;;;11.15;99.23
9822;BME280;4950;46.042;14.472;2022-10-16T07:12:18;98609.38;;;11.28;99.14
9822;BME280;4950;46.042;14.472;2022-10-16T07:14:45;98601.28;;;11.23;98.93
9822;BME280;4950;46.042;14.472;2022-10-16T07:17:11;98598.00;;;11.21;98.34
9822;BME280;4950;46.042;14.472;2022-10-16T07:19:38;98604.19;;;11.20;98.91
9822;BME280;4950;46.042;14.472;2022-10-16T07:22:06;98597.69;;;11.32;98.81
9822;BME280;4950;46.042;14.472;2022-10-16T07:24:32;98606.31;;;11.41;98.46
9822;BME280;4950;46.042;14.472;2022-10-16T07:26:59;98603.03;;;11.31;98.34
9822;BME280;4950;46.042;14.472;2022-10-16T07:29:26;98611.81;;;11.30;98.58
9822;BME280;4950;46.042;14.472;2022-10-16T07:31:52;98623.38;;;11.35;98.74
9822;BME280;4950;46.042;14.472;2022-10-16T07:34:19;98628.72;;;11.42;98.58
9822;BME280;4950;46.042;14.472;2022-10-16T07:36:48;98620.78;;;11.43;98.66
9822;BME280;4950;46.042;14.472;2022-10-16T07:39:16;98635.38;;;11.36;98.13
9822;BME280;4950;46.042;14.472;2022-10-16T07:41:43;98643.81;;;11.30;98.52
9822;BME280;4950;46.042;14.472;2022-10-16T07:44:10;98641.22;;;11.30;98.57
9822;BME280;4950;46.042;14.472;2022-10-16T07:46:37;98638.78;;;11.29;98.92
9822;BME280;4950;46.042;14.472;2022-10-16T07:49:04;98647.19;;;11.14;98.16
9822;BME280;4950;46.042;14.472;2022-10-16T07:51:30;98658.59;;;11.30;97.93
9822;BME280;4950;46.042;14.472;2022-10-16T07:53:57;98655.22;;;11.29;98.07
9822;BME280;4950;46.042;14.472;2022-10-16T07:56:25;98649.00;;;11.22;98.41
9822;BME280;4950;46.042;14.472;2022-10-16T07:58:52;98649.66;;;11.24;98.32
9822;BME280;4950;46.042;14.472;2022-10-16T08:01:19;98662.38;;;11.35;98.84
9822;BME280;4950;46.042;14.472;2022-10-16T08:03:48;98649.38;;;11.52;98.76
9822;BME280;4950;46.042;14.472;2022-10-16T08:06:16;98657.53;;;11.57;98.06
9822;BME280;4950;46.042;14.472;2022-10-16T08:08:43;98661.56;;;11.59;98.30
9822;BME280;4950;46.042;14.472;2022-10-16T08:11:09;98664.81;;;11.61;97.46
9822;BME280;4950;46.042;14.472;2022-10-16T08:13:37;98661.13;;;11.72;96.99
9822;BME280;4950;46.042;14.472;2022-10-16T08:16:04;98659.16;;;11.66;96.62
9822;BME280;4950;46.042;14.472;2022-10-16T08:18:33;98667.63;;;11.68;96.63
9822;BME280;4950;46.042;14.472;2022-10-16T08:21:00;98668.25;;;11.78;96.58
9822;BME280;4950;46.042;14.472;2022-10-16T08:23:27;98666.97;;;11.82;95.86
9822;BME280;4950;46.042;14.472;2022-10-16T08:25:54;98670.88;;;11.86;96.37
9822;BME280;4950;46.042;14.472;2022-10-16T08:28:22;98671.22;;;12.00;96.40
9822;BME280;4950;46.042;14.472;2022-10-16T08:30:50;98673.66;;;12.01;95.51
9822;BME280;4950;46.042;14.472;2022-10-16T08:33:17;98673.50;;;11.95;95.79
9822;BME280;4950;46.042;14.472;2022-10-16T08:35:50;98673.97;;;11.98;95.59
9822;BME280;4950;46.042;14.472;2022-10-16T08:38:17;98670.22;;;12.01;95.31
9822;BME280;4950;46.042;14.472;2022-10-16T08:40:44;98675.78;;;12.06;95.60
9822;BME280;4950;46.042;14.472;2022-10-16T08:43:23;98678.69;;;12.11;95.42
9822;BME280;4950;46.042;14.472;2022-10-16T08:46:08;98676.72;;;12.21;94.90
9822;BME280;4950;46.042;14.472;2022-10-16T08:48:43;98682.09;;;12.12;95.08
9822;BME280;4950;46.042;14.472;2022-10-16T08:51:15;98681.63;;;12.08;95.76
9822;BME280;4950;46.042;14.472;2022-10-16T08:53:50;98674.16;;;12.13;96.26
9822;BME280;4950;46.042;14.472;2022-10-16T08:56:18;98678.69;;;12.28;95.75
9822;BME280;4950;46.042;14.472;2022-10-16T08:58:45;98682.56;;;12.32;96.07
9822;BME280;4950;46.042;14.472;2022-10-16T09:01:15;98686.81;;;12.33;96.19
9822;BME280;4950;46.042;14.472;2022-10-16T09:03:55;98679.31;;;12.46;95.70
9822;BME280;4950;46.042;14.472;2022-10-16T09:06:33;98678.59;;;12.60;94.74
9822;BME280;4950;46.042;14.472;2022-10-16T09:09:24;98679.06;;;12.72;93.31
9822;BME280;4950;46.042;14.472;2022-10-16T09:12:00;98682.00;;;12.77;93.30
9822;BME280;4950;46.042;14.472;2022-10-16T09:14:38;98675.75;;;12.87;93.10
9822;BME280;4950;46.042;14.472;2022-10-16T09:17:21;98675.53;;;12.96;92.99
9822;BME280;4950;46.042;14.472;2022-10-16T09:19:53;98669.28;;;13.14;92.36
9822;BME280;4950;46.042;14.472;2022-10-16T09:22:26;98674.50;;;13.14;91.76
9822;BME280;4950;46.042;14.472;2022-10-16T09:24:54;98673.63;;;13.30;91.99
9822;BME280;4950;46.042;14.472;2022-10-16T09:27:21;98678.34;;;13.34;91.22
9822;BME280;4950;46.042;14.472;2022-10-16T09:29:48;98682.75;;;13.34;91.38
9822;BME280;4950;46.042;14.472;2022-10-16T09:32:18;98682.50;;;13.43;91.62
9822;BME280;4950;46.042;14.472;2022-10-16T09:34:48;98674.28;;;13.55;91.75
9822;BME280;4950;46.042;14.472;2022-10-16T09:37:18;98681.38;;;13.69;91.27
9822;BME280;4950;46.042;14.472;2022-10-16T09:39:47;98681.59;;;13.82;90.68
9822;BME280;4950;46.042;14.472;2022-10-16T09:42:16;98683.22;;;14.07;88.95
9822;BME280;4950;46.042;14.472;2022-10-16T09:44:47;98686.47;;;14.23;88.07
9822;BME280;4950;46.042;14.472;2022-10-16T09:47:18;98689.31;;;14.52;87.43
9822;BME280;4950;46.042;14.472;2022-10-16T09:49:53;98690.97;;;14.68;86.96
9822;BME280;4950;46.042;14.472;2022-10-16T09:52:20;98689.50;;;14.95;86.03
9822;BME280;4950;46.042;14.472;2022-10-16T09:54:51;98681.19;;;15.43;83.40
9822;BME280;4950;46.042;14.472;2022-10-16T09:57:18;98680.72;;;15.54;81.96
9822;BME280;4950;46.042;14.472;2022-10-16T09:59:49;98684.59;;;15.79;80.71
9822;BME280;4950;46.042;14.472;2022-10-16T10:02:21;98680.91;;;15.95;80.31
9822;BME280;4950;46.042;14.472;2022-10-16T10:04:54;98684.66;;;16.36;78.83
9822;BME280;4950;46.042;14.472;2022-10-16T10:07:24;98677.06;;;16.48;78.84
9822;BME280;4950;46.042;14.472;2022-10-16T10:09:52;98674.59;;;16.68;76.89
9822;BME280;4950;46.042;14.472;2022-10-16T10:12:21;98673.31;;;16.92;75.82
9822;BME280;4950;46.042;14.472;2022-10-16T10:14:51;98670.38;;;17.15;76.27
9822;BME280;4950;46.042;14.472;2022-10-16T10:17:21;98665.56;;;17.32;75.25
9822;BME280;4950;46.042;14.472;2022-10-16T10:19:50;98661.00;;;17.61;73.93
9822;BME280;4950;46.042;14.472;2022-10-16T10:22:29;98661.66;;;17.96;71.32
9822;BME280;4950;46.042;14.472;2022-10-16T10:24:59;98658.63;;;18.06;70.06
9822;BME280;4950;46.042;14.472;2022-10-16T10:27:32;98662.22;;;18.31;69.45
9822;BME280;4950;46.042;14.472;2022-10-16T10:30:07;98654.50;;;18.63;68.21
9822;BME280;4950;46.042;14.472;2022-10-16T10:32:44;98653.06;;;18.81;65.28
9822;BME280;4950;46.042;14.472;2022-10-16T10:35:17;98653.00;;;18.87;64.58
9822;BME280;4950;46.042;14.472;2022-10-16T10:38:02;98641.66;;;19.32;64.15
9822;BME280;4950;46.042;14.472;2022-10-16T10:40:42;98639.22;;;19.62;61.97
9822;BME280;4950;46.042;14.472;2022-10-16T10:43:20;98632.53;;;19.91;60.72
9822;BME280;4950;46.042;14.472;2022-10-16T10:45:52;98629.97;;;20.28;59.64
9822;BME280;4950;46.042;14.472;2022-10-16T10:48:43;98631.41;;;20.31;57.55
9822;BME280;4950;46.042;14.472;2022-10-16T10:51:19;98627.16;;;20.67;57.62
9822;BME280;4950;46.042;14.472;2022-10-16T10:53:52;98629.06;;;20.78;56.77
9822;BME280;4950;46.042;14.472;2022-10-16T10:56:39;98632.84;;;21.01;57.13
9822;BME280;4950;46.042;14.472;2022-10-16T10:59:23;98627.28;;;21.21;57.09
9822;BME280;4950;46.042;14.472;2022-10-16T11:01:56;98619.84;;;21.60;55.30
9822;BME280;4950;46.042;14.472;2022-10-16T11:05:01;98618.97;;;21.78;53.21
9822;BME280;4950;46.042;14.472;2022-10-16T11:07:40;98626.44;;;21.93;53.24
9822;BME280;4950;46.042;14.472;2022-10-16T11:10:14;98614.25;;;22.03;52.75
9822;BME280;4950;46.042;14.472;2022-10-16T11:12:45;98609.19;;;22.37;52.14
9822;BME280;4950;46.042;14.472;2022-10-16T11:15:15;98613.91;;;22.47;51.48
9822;BME280;4950;46.042;14.472;2022-10-16T11:17:47;98617.78;;;22.56;51.52
9822;BME280;4950;46.042;14.472;2022-10-16T11:20:20;98606.16;;;22.98;51.36
9822;BME280;4950;46.042;14.472;2022-10-16T11:22:52;98597.03;;;23.34;48.86
9822;BME280;4950;46.042;14.472;2022-10-16T11:25:21;98595.09;;;23.46;49.86
9822;BME280;4950;46.042;14.472;2022-10-16T11:27:54;98595.53;;;23.55;49.03
9822;BME280;4950;46.042;14.472;2022-10-16T11:30:25;98596.00;;;23.69;49.11
9822;BME280;4950;46.042;14.472;2022-10-16T11:33:00;98604.22;;;23.84;49.09
9822;BME280;4950;46.042;14.472;2022-10-16T11:35:39;98595.94;;;23.81;48.02
9822;BME280;4950;46.042;14.472;2022-10-16T11:38:10;98598.75;;;23.91;48.76
9822;BME280;4950;46.042;14.472;2022-10-16T11:40:41;98592.75;;;24.40;47.39
9822;BME280;4950;46.042;14.472;2022-10-16T11:43:13;98587.47;;;24.62;45.99
9822;BME280;4950;46.042;14.472;2022-10-16T11:45:43;98591.47;;;24.64;46.62
9822;BME280;4950;46.042;14.472;2022-10-16T11:48:18;98591.31;;;24.71;46.58
9822;BME280;4950;46.042;14.472;2022-10-16T11:50:50;98582.09;;;25.06;45.95
9822;BME280;4950;46.042;14.472;2022-10-16T11:53:24;98587.72;;;25.37;45.38
9822;BME280;4950;46.042;14.472;2022-10-16T11:55:54;98592.09;;;25.53;44.33
9822;BME280;4950;46.042;14.472;2022-10-16T11:58:26;98582.69;;;25.73;43.64
9822;BME280;4950;46.042;14.472;2022-10-16T12:00:59;98590.41;;;25.79;43.59
9822;BME280;4950;46.042;14.472;2022-10-16T12:03:31;98586.88;;;26.01;43.11
9822;BME280;4950;46.042;14.472;2022-10-16T12:06:13;98580.88;;;26.21;42.90
9822;BME280;4950;46.042;14.472;2022-10-16T12:08:43;98580.22;;;26.56;43.06
9822;BME280;4950;46.042;14.472;2022-10-16T12:11:34;98575.81;;;26.98;41.43
9822;BME280;4950;46.042;14.472;2022-10-16T12:14:20;98582.47;;;26.95;41.31
9822;BME280;4950;46.042;14.472;2022-10-16T12:16:52;98583.28;;;26.96;42.21
9822;BME280;4950;46.042;14.472;2022-10-16T12:19:20;98574.75;;;27.04;41.53
9822;BME280;4950;46.042;14.472;2022-10-16T12:21:50;98574.81;;;27.25;41.21
9822;BME280;4950;46.042;14.472;2022-10-16T12:24:32;98568.41;;;27.62;39.25
9822;BME280;4950;46.042;14.472;2022-10-16T12:27:00;98568.91;;;27.74;39.90
9822;BME280;4950;46.042;14.472;2022-10-16T12:29:33;98574.25;;;27.69;39.10
9822;BME280;4950;46.042;14.472;2022-10-16T12:32:00;98561.47;;;27.66;39.55
9822;BME280;4950;46.042;14.472;2022-10-16T12:34:35;98564.66;;;27.63;39.78
9822;BME280;4950;46.042;14.472;2022-10-16T12:37:13;98563.34;;;27.60;39.86
9822;BME280;4950;46.042;14.472;2022-10-16T12:39:41;98571.06;;;27.56;40.41
9822;BME280;4950;46.042;14.472;2022-10-16T12:42:21;98562.28;;;27.56;40.34
9822;BME280;4950;46.042;14.472;2022-10-16T12:44:49;98562.53;;;27.54;40.89
9822;BME280;4950;46.042;14.472;2022-10-16T12:47:21;98557.19;;;27.49;40.53
9822;BME280;4950;46.042;14.472;2022-10-16T12:49:50;98566.22;;;27.84;40.02
9822;BME280;4950;46.042;14.472;2022-10-16T12:52:26;98558.22;;;28.00;39.38
9822;BME280;4950;46.042;14.472;2022-10-16T12:54:56;98561.66;;;28.05;38.91
9822;BME280;4950;46.042;14.472;2022-10-16T12:57:37;98561.66;;;28.00;39.77
9822;BME280;4950;46.042;14.472;2022-10-16T13:00:16;98563.47;;;28.25;39.82
9822;BME280;4950;46.042;14.472;2022-10-16T13:05:48;98559.03;;;28.65;39.23
9822;BME280;4950;46.042;14.472;2022-10-16T13:08:36;98570.38;;;28.86;38.28
9822;BME280;4950;46.042;14.472;2022-10-16T13:11:11;98569.41;;;28.72;39.20
9822;BME280;4950;46.042;14.472;2022-10-16T13:14:01;98567.09;;;28.55;40.98
9822;BME280;4950;46.042;14.472;2022-10-16T13:16:38;98573.66;;;28.78;39.83
9822;BME280;4950;46.042;14.472;2022-10-16T13:19:20;98567.25;;;28.79;39.24
9822;BME280;4950;46.042;14.472;2022-10-16T13:21:57;98571.84;;;28.68;39.52
9822;BME280;4950;46.042;14.472;2022-10-16T13:24:42;98575.63;;;28.62;40.15
9822;BME280;4950;46.042;14.472;2022-10-16T13:27:20;98569.50;;;28.57;39.81
9822;BME280;4950;46.042;14.472;2022-10-16T13:29:53;98575.88;;;28.66;40.35